Time;durP1;ratioP1;P1;durP2;ratioP2;P2;SDS_P1;SDS_P2;PMS_P1;PMS_P2;Temp;Humidity;BMP_temperature;BMP_pressure;BME280_temperature;BME280_humidity;BME280_pressure;Samples;Min_cycle;Max_cycle;Signal;HPM_P1;HPM_P2
2021/07/02 05:07:52;;;;;;;7.63;6.40;;;14.70;99.90;;;;;;6150155;23;20511;-84
2021/07/02 05:10:18;;;;;;;9.07;7.20;;;14.70;99.90;;;;;;6240223;23;20461;-85
2021/07/02 05:12:45;;;;;;;8.47;7.67;;;14.80;99.90;;;;;;6234066;23;20449;-87
2021/07/02 05:15:12;;;;;;;14.67;8.20;;;14.80;99.90;;;;;;6233948;23;20545;-86
2021/07/02 05:17:40;;;;;;;8.43;7.30;;;14.80;99.90;;;;;;6233634;23;20432;-87
2021/07/02 05:20:07;;;;;;;7.93;7.13;;;14.90;99.90;;;;;;6232184;23;20413;-87
2021/07/02 05:22:34;;;;;;;9.50;8.27;;;15.00;99.90;;;;;;6232501;23;20405;-87
2021/07/02 05:25:03;;;;;;;9.57;8.57;;;15.00;99.90;;;;;;6233482;23;20397;-87
2021/07/02 05:27:30;;;;;;;8.17;7.27;;;14.90;99.90;;;;;;6233118;23;20424;-87
2021/07/02 05:29:56;;;;;;;9.60;7.47;;;14.90;99.90;;;;;;6232396;23;20411;-87
2021/07/02 05:32:23;;;;;;;8.87;8.07;;;15.00;99.90;;;;;;6237357;23;20477;-87
2021/07/02 05:34:50;;;;;;;9.33;8.40;;;15.00;99.90;;;;;;6238609;23;20448;-87
2021/07/02 05:37:17;;;;;;;6.87;6.27;;;15.10;99.90;;;;;;6238178;23;20416;-84
2021/07/02 05:39:43;;;;;;;7.23;6.53;;;15.10;99.90;;;;;;6235656;23;20480;-86
2021/07/02 05:42:12;;;;;;;9.90;7.50;;;15.20;99.90;;;;;;6241320;23;20404;-86
2021/07/02 05:44:38;;;;;;;8.03;7.30;;;15.20;99.90;;;;;;6241320;23;20491;-86
2021/07/02 05:47:05;;;;;;;8.00;6.27;;;15.10;99.90;;;;;;6241420;23;20452;-86
2021/07/02 05:49:32;;;;;;;7.33;6.40;;;15.00;99.90;;;;;;6240581;23;20405;-86
2021/07/02 05:51:59;;;;;;;6.43;5.83;;;15.00;99.90;;;;;;6234252;23;20519;-86
2021/07/02 05:54:26;;;;;;;7.50;6.77;;;15.00;99.90;;;;;;6234107;23;20412;-85
2021/07/02 05:56:52;;;;;;;7.93;7.13;;;15.00;99.90;;;;;;6234794;23;20461;-86
2021/07/02 05:59:20;;;;;;;6.30;5.70;;;15.10;99.90;;;;;;6235833;23;20849;-86
2021/07/02 06:01:47;;;;;;;7.90;7.10;;;15.10;99.90;;;;;;6234289;23;20421;-87
2021/07/02 06:04:14;;;;;;;8.00;6.27;;;15.20;99.90;;;;;;6236009;23;20445;-86
2021/07/02 06:06:41;;;;;;;6.33;5.63;;;15.30;99.90;;;;;;6235745;23;20464;-86
2021/07/02 06:09:08;;;;;;;7.20;6.50;;;15.40;99.90;;;;;;6237876;23;20417;-87
2021/07/02 06:11:35;;;;;;;10.50;7.23;;;15.50;99.90;;;;;;6239820;23;20405;-87
2021/07/02 06:14:01;;;;;;;6.77;6.17;;;15.60;99.90;;;;;;6243575;23;20492;-86
2021/07/02 06:16:30;;;;;;;6.70;5.97;;;15.70;99.90;;;;;;6235230;23;20532;-87
2021/07/02 06:19:00;;;;;;;7.90;7.20;;;15.80;99.90;;;;;;6232871;23;20440;-88
2021/07/02 06:21:27;;;;;;;6.77;6.17;;;15.90;99.90;;;;;;6232322;23;20408;-87
2021/07/02 06:23:54;;;;;;;6.87;6.23;;;16.00;99.90;;;;;;6229187;23;20389;-87
2021/07/02 06:26:21;;;;;;;9.30;7.60;;;16.00;99.90;;;;;;6224267;23;20484;-84
2021/07/02 06:28:48;;;;;;;6.60;5.97;;;16.00;99.90;;;;;;6223717;23;20409;-85
2021/07/02 06:31:15;;;;;;;6.50;5.90;;;16.10;99.90;;;;;;6222362;23;20944;-86
2021/07/02 06:33:43;;;;;;;8.43;7.50;;;16.20;99.90;;;;;;6221846;23;20449;-88
2021/07/02 06:36:10;;;;;;;8.30;6.90;;;16.30;99.90;;;;;;6224101;23;21014;-86
2021/07/02 06:38:37;;;;;;;6.73;6.13;;;16.40;99.90;;;;;;6222229;23;20482;-86
2021/07/02 06:41:03;;;;;;;6.47;5.87;;;16.50;99.90;;;;;;6234947;23;20480;-87
2021/07/02 06:43:31;;;;;;;8.07;7.27;;;16.60;99.90;;;;;;6236462;23;20441;-87
2021/07/02 06:45:58;;;;;;;8.03;6.37;;;16.50;99.90;;;;;;6235626;23;20397;-87
2021/07/02 06:48:24;;;;;;;7.33;6.13;;;16.60;99.90;;;;;;6235506;23;20432;-88
2021/07/02 06:50:56;;;;;;;8.10;7.30;;;16.70;99.90;;;;;;6235787;23;20412;-87
2021/07/02 06:53:23;;;;;;;8.63;6.27;;;16.80;99.90;;;;;;6234715;23;20469;-87
2021/07/02 06:55:51;;;;;;;6.20;5.60;;;16.90;99.90;;;;;;6234595;23;20478;-87
2021/07/02 06:58:17;;;;;;;6.97;6.30;;;16.90;99.90;;;;;;6233487;23;20462;-87
2021/07/02 07:00:44;;;;;;;6.30;5.70;;;17.10;99.90;;;;;;6234060;23;20438;-86
2021/07/02 07:03:11;;;;;;;6.80;6.13;;;17.10;99.90;;;;;;6234155;23;20470;-87
2021/07/02 07:05:40;;;;;;;7.03;6.33;;;17.20;99.90;;;;;;6233568;23;20912;-87
2021/07/02 07:08:09;;;;;;;7.00;6.40;;;17.40;99.90;;;;;;6235529;23;20446;-87
2021/07/02 07:10:37;;;;;;;6.57;5.80;;;17.40;99.90;;;;;;6234653;23;20417;-87
2021/07/02 07:13:06;;;;;;;5.97;5.40;;;17.40;99.90;;;;;;6233376;23;20525;-87
2021/07/02 07:15:33;;;;;;;10.30;6.33;;;17.60;99.90;;;;;;6233515;23;20414;-87
2021/07/02 07:18:00;;;;;;;6.90;6.30;;;17.60;99.90;;;;;;6232773;23;20497;-87
2021/07/02 07:20:27;;;;;;;7.30;6.10;;;17.60;99.90;;;;;;6232703;23;20421;-87
2021/07/02 07:22:53;;;;;;;7.30;6.60;;;17.80;99.90;;;;;;6233067;23;20411;-88
2021/07/02 07:25:22;;;;;;;6.77;6.10;;;17.80;99.90;;;;;;6233452;23;20712;-87
2021/07/02 07:27:49;;;;;;;6.87;6.20;;;17.80;99.90;;;;;;6232175;23;20488;-86
2021/07/02 07:30:16;;;;;;;6.80;6.10;;;18.00;99.90;;;;;;6231853;23;20442;-88
2021/07/02 07:32:45;;;;;;;5.70;5.17;;;18.10;99.90;;;;;;6233355;23;20799;-85
2021/07/02 07:35:19;;;;;;;5.07;4.67;;;18.20;99.90;;;;;;6233501;23;20442;-85
2021/07/02 07:37:49;;;;;;;5.90;5.40;;;18.30;99.90;;;;;;6232711;23;20439;-87
2021/07/02 07:40:16;;;;;;;6.00;5.00;;;18.40;99.90;;;;;;6232070;23;20424;-85
2021/07/02 07:42:44;;;;;;;5.53;4.97;;;18.40;99.90;;;;;;6233778;23;20421;-87
2021/07/02 07:45:11;;;;;;;6.03;5.50;;;18.40;99.90;;;;;;6232308;23;20408;-86
2021/07/02 07:47:38;;;;;;;5.73;5.33;;;18.50;99.90;;;;;;6230468;23;20427;-87
2021/07/02 07:50:09;;;;;;;7.53;5.50;;;18.40;99.90;;;;;;6230286;23;20502;-86
2021/07/02 07:55:20;;;;;;;6.60;5.33;;;18.10;99.90;;;;;;6202915;23;20790;-86
2021/07/02 07:57:48;;;;;;;6.00;5.40;;;18.00;99.80;;;;;;6228843;23;20514;-86
2021/07/02 08:00:16;;;;;;;7.50;5.30;;;17.90;99.90;;;;;;6231226;23;20407;-86
2021/07/02 08:02:43;;;;;;;6.30;5.57;;;17.90;99.90;;;;;;6229240;23;20475;-87
2021/07/02 08:05:11;;;;;;;6.20;5.60;;;18.00;99.90;;;;;;6228482;23;20758;-86
2021/07/02 08:07:38;;;;;;;4.80;4.37;;;18.20;99.90;;;;;;6229317;23;20756;-86
2021/07/02 08:10:08;;;;;;;5.57;5.07;;;18.40;99.90;;;;;;6229617;23;20491;-87
2021/07/02 08:12:35;;;;;;;6.50;5.90;;;18.50;99.20;;;;;;6221486;23;20431;-86
2021/07/02 08:15:04;;;;;;;4.97;4.47;;;18.70;99.60;;;;;;6217685;23;20423;-84
2021/07/02 08:17:31;;;;;;;7.07;5.87;;;18.80;98.50;;;;;;6217695;23;20431;-86
2021/07/02 08:19:59;;;;;;;5.63;5.10;;;18.90;98.70;;;;;;6218301;23;20950;-86
2021/07/02 08:22:28;;;;;;;6.13;5.13;;;19.00;99.50;;;;;;6218307;23;20448;-85
2021/07/02 08:31:58;;;;;;;6.37;5.13;;;18.70;98.40;;;;;;6076186;23;20471;-87
2021/07/02 08:37:59;;;;;;;7.10;4.47;;;18.90;97.30;;;;;;5978331;23;20440;-84
2021/07/02 08:58:22;;;;;;;5.60;5.10;;;19.00;96.40;;;;;;5975274;23;20730;-87
2021/07/02 09:00:49;;;;;;;4.77;4.37;;;19.00;96.50;;;;;;6113699;23;20402;-85
2021/07/02 09:03:49;;;;;;;5.33;4.80;;;19.20;96.00;;;;;;6224795;23;20408;-85
2021/07/02 09:10:15;;;;;;;5.07;4.67;;;18.90;95.30;;;;;;6180502;23;20438;-85
2021/07/02 09:12:56;;;;;;;5.90;5.30;;;19.10;95.20;;;;;;6074978;23;20483;-85
2021/07/02 09:15:46;;;;;;;;;;;;;;;;;;;;;
2021/07/02 09:18:39;;;;;;;4.30;4.00;;;19.50;96.10;;;;;;6073665;23;20469;-85
2021/07/02 09:21:52;;;;;;;5.03;4.63;;;19.70;94.10;;;;;;6080022;23;20924;-85
2021/07/02 09:25:03;;;;;;;5.40;4.90;;;19.90;93.80;;;;;;6051840;23;20524;-87
2021/07/02 09:28:07;;;;;;;5.50;5.03;;;19.90;95.10;;;;;;6212584;23;20448;-82
2021/07/02 09:31:34;;;;;;;;;;;;;;;;;;;;;
2021/07/02 09:34:33;;;;;;;10.33;4.53;;;20.10;94.80;;;;;;6198550;23;20453;-86
2021/07/02 09:37:24;;;;;;;5.50;5.00;;;20.30;94.10;;;;;;6219457;23;20449;-86
2021/07/02 09:40:37;;;;;;;5.40;4.90;;;20.40;93.00;;;;;;6226942;23;20726;-86
2021/07/02 09:43:07;;;;;;;4.83;4.40;;;20.50;91.90;;;;;;6214768;23;20410;-85
2021/07/02 09:45:36;;;;;;;5.20;4.70;;;20.70;91.70;;;;;;6228697;23;20860;-86
2021/07/02 09:48:16;;;;;;;4.83;4.43;;;20.90;92.40;;;;;;6228697;23;20413;-86
2021/07/02 09:51:03;;;;;;;5.60;5.10;;;20.90;91.50;;;;;;6229702;23;20439;-86
2021/07/02 10:00:45;;;;;;;7.63;5.00;;;20.70;91.80;;;;;;6083283;23;20396;-86
2021/07/02 10:03:15;;;;;;;5.90;4.97;;;20.50;90.80;;;;;;6099183;23;20499;-85
2021/07/02 10:06:24;;;;;;;5.23;4.73;;;20.40;91.00;;;;;;6185055;23;20906;-86
2021/07/02 10:08:54;;;;;;;4.80;4.40;;;20.50;90.30;;;;;;6160411;23;20485;-85
2021/07/02 10:11:24;;;;;;;5.20;4.70;;;20.80;90.90;;;;;;6225753;23;20404;-86
2021/07/02 10:13:51;;;;;;;4.53;4.20;;;21.00;90.80;;;;;;6226851;23;20452;-85
2021/07/02 10:16:18;;;;;;;4.53;4.13;;;21.20;90.30;;;;;;6227055;23;20432;-85
2021/07/02 10:18:48;;;;;;;3.77;3.47;;;21.20;90.30;;;;;;6225915;23;20921;-85
2021/07/02 10:21:18;;;;;;;5.07;4.57;;;21.00;86.40;;;;;;6226326;23;20411;-84
2021/07/02 10:24:03;;;;;;;5.73;4.80;;;21.10;88.20;;;;;;6225054;23;20886;-85
2021/07/02 10:26:35;;;;;;;4.47;4.17;;;21.10;85.10;;;;;;6226326;23;20787;-82
2021/07/02 10:29:02;;;;;;;3.47;3.17;;;21.10;87.40;;;;;;6217890;23;20448;-81
2021/07/02 10:31:29;;;;;;;4.30;3.90;;;21.30;90.10;;;;;;6220159;23;20414;-81
2021/07/02 10:34:00;;;;;;;5.87;4.67;;;21.40;88.90;;;;;;6221743;23;20450;-85
2021/07/02 10:36:32;;;;;;;4.93;4.50;;;21.60;88.10;;;;;;6232518;23;20501;-83
2021/07/02 10:38:59;;;;;;;4.67;4.27;;;21.70;88.70;;;;;;6228213;23;20394;-84
2021/07/02 10:41:27;;;;;;;5.20;4.73;;;21.80;87.60;;;;;;6231645;23;20894;-85
2021/07/02 10:44:10;;;;;;;4.70;4.30;;;21.90;88.80;;;;;;6232833;23;20433;-86
2021/07/02 10:46:38;;;;;;;5.10;4.40;;;22.10;90.20;;;;;;6227273;23;20431;-86
2021/07/02 10:49:07;;;;;;;4.93;4.53;;;22.30;88.90;;;;;;6221403;23;20760;-86
2021/07/02 10:51:54;;;;;;;4.80;4.40;;;22.50;84.60;;;;;;6224905;23;20421;-84
2021/07/02 10:54:42;;;;;;;4.20;3.90;;;22.40;85.00;;;;;;6226857;23;20442;-84
2021/07/02 10:57:12;;;;;;;4.80;4.40;;;22.30;83.90;;;;;;6215554;23;20447;-82
2021/07/02 11:00:15;;;;;;;4.77;4.37;;;22.10;85.30;;;;;;6229336;23;20395;-82
2021/07/02 11:02:43;;;;;;;4.67;4.27;;;22.20;83.90;;;;;;6228466;23;20394;-84
2021/07/02 11:05:33;;;;;;;5.80;5.17;;;22.30;84.30;;;;;;6229163;23;20416;-86
2021/07/02 11:08:00;;;;;;;4.77;4.37;;;22.30;83.30;;;;;;6226221;23;20433;-85
2021/07/02 11:10:27;;;;;;;4.37;4.00;;;22.30;82.70;;;;;;6225290;23;20459;-84
2021/07/02 11:13:05;;;;;;;5.87;4.57;;;22.30;83.00;;;;;;6224464;23;20423;-85
2021/07/02 11:15:33;;;;;;;5.67;5.17;;;22.60;84.90;;;;;;6224235;23;20413;-84
2021/07/02 11:18:17;;;;;;;4.60;3.73;;;23.00;83.90;;;;;;6225998;23;20499;-84
2021/07/02 11:20:46;;;;;;;4.63;4.00;;;23.30;78.90;;;;;;6224045;23;20402;-84
2021/07/02 11:23:24;;;;;;;5.53;4.77;;;23.60;77.40;;;;;;6223074;23;20417;-84
2021/07/02 11:25:56;;;;;;;4.93;4.63;;;24.00;75.50;;;;;;6223915;23;20397;-85
2021/07/02 11:28:52;;;;;;;5.40;4.87;;;24.40;77.90;;;;;;6223175;23;20394;-84
2021/07/02 11:31:19;;;;;;;5.00;4.23;;;24.60;78.80;;;;;;6222749;23;20424;-82
2021/07/02 11:33:47;;;;;;;5.57;5.10;;;25.00;77.40;;;;;;6226361;23;20527;-83
2021/07/02 11:36:20;;;;;;;4.43;4.03;;;25.40;78.50;;;;;;6224250;23;20405;-81
2021/07/02 11:38:53;;;;;;;3.90;3.60;;;25.50;72.30;;;;;;6223368;23;20892;-83
2021/07/02 11:41:25;;;;;;;4.63;4.33;;;25.70;69.10;;;;;;6223615;23;20421;-82
2021/07/02 11:43:53;;;;;;;4.17;3.83;;;25.90;68.50;;;;;;6223368;23;20410;-83
2021/07/02 11:46:21;;;;;;;5.80;5.40;;;25.70;71.20;;;;;;6223396;23;20433;-83
2021/07/02 11:48:49;;;;;;;5.33;4.93;;;25.80;73.30;;;;;;6222615;23;20415;-83
2021/07/02 11:51:19;;;;;;;5.03;4.67;;;25.80;71.90;;;;;;6223599;23;20409;-82
2021/07/02 11:53:49;;;;;;;5.17;4.77;;;25.80;72.90;;;;;;6223125;23;20937;-82
2021/07/02 11:56:17;;;;;;;5.70;5.30;;;25.80;71.50;;;;;;6223962;23;20452;-84
2021/07/02 11:58:45;;;;;;;6.50;5.90;;;26.00;73.10;;;;;;6225633;23;20418;-82
2021/07/02 12:01:14;;;;;;;5.63;5.13;;;26.00;70.70;;;;;;6223067;23;20412;-82
2021/07/02 12:03:45;;;;;;;4.87;4.47;;;25.60;72.10;;;;;;6222802;23;20441;-80
2021/07/02 12:06:17;;;;;;;5.77;5.20;;;25.70;71.10;;;;;;6222969;23;20394;-83
2021/07/02 12:08:49;;;;;;;5.77;5.20;;;25.50;70.80;;;;;;6223540;23;20397;-84
2021/07/02 12:11:16;;;;;;;5.33;4.83;;;25.70;72.50;;;;;;6224145;23;20429;-83
2021/07/02 12:13:51;;;;;;;5.70;5.30;;;26.00;72.10;;;;;;6224240;23;20453;-84
2021/07/02 12:16:19;;;;;;;4.93;4.50;;;25.90;70.40;;;;;;6227089;23;20461;-85
2021/07/02 12:18:54;;;;;;;5.80;5.20;;;25.80;69.00;;;;;;6225878;23;20415;-85
2021/07/02 12:21:28;;;;;;;5.17;4.70;;;25.90;68.70;;;;;;6227170;23;20894;-83
2021/07/02 12:23:57;;;;;;;5.97;5.43;;;26.10;70.10;;;;;;6226327;23;20403;-84
2021/07/02 12:26:27;;;;;;;5.77;5.27;;;26.20;66.70;;;;;;6222977;23;20434;-82
2021/07/02 12:29:05;;;;;;;8.73;4.80;;;26.00;68.10;;;;;;6224951;23;20444;-83
2021/07/02 12:31:36;;;;;;;5.50;4.60;;;25.90;67.40;;;;;;6222670;23;20402;-83
2021/07/02 12:34:04;;;;;;;5.20;4.70;;;26.10;66.60;;;;;;6224659;23;20430;-83
2021/07/02 12:36:43;;;;;;;5.33;4.17;;;26.00;68.90;;;;;;6232464;23;20429;-85
2021/07/02 12:42:38;;;;;;;5.50;5.10;;;26.80;67.60;;;;;;6181266;23;20414;-81
2021/07/02 12:45:26;;;;;;;5.70;5.20;;;27.20;64.50;;;;;;6230479;23;20397;-84
2021/07/02 12:47:59;;;;;;;5.17;4.77;;;27.70;66.10;;;;;;6224781;23;20449;-84
2021/07/02 12:50:30;;;;;;;5.30;4.90;;;28.10;64.80;;;;;;6224714;23;20458;-86
2021/07/02 12:55:42;;;;;;;5.03;4.63;;;29.10;60.20;;;;;;6224460;23;20387;-84
2021/07/02 12:58:14;;;;;;;6.37;5.87;;;29.60;60.30;;;;;;6223538;23;20421;-84
2021/07/02 13:46:37;;;;;;;5.33;4.93;;;30.00;52.90;;;;;;6215823;22;20443;-83
2021/07/02 13:49:09;;;;;;;5.33;4.93;;;30.00;54.30;;;;;;6221293;23;20422;-84
2021/07/02 13:51:38;;;;;;;4.80;4.50;;;29.80;53.00;;;;;;6224061;23;20441;-84
2021/07/02 13:54:06;;;;;;;5.20;4.80;;;29.90;52.80;;;;;;6225235;23;20413;-84
2021/07/02 13:56:32;;;;;;;4.43;4.13;;;29.90;52.30;;;;;;6225295;23;20432;-84
2021/07/02 13:58:59;;;;;;;4.97;4.57;;;29.70;52.70;;;;;;6222169;23;20419;-84
2021/07/02 14:01:26;;;;;;;5.70;5.30;;;29.60;53.70;;;;;;6222416;23;20409;-84
2021/07/02 14:03:54;;;;;;;5.50;5.10;;;29.80;53.20;;;;;;6223481;23;20404;-83
2021/07/02 14:06:24;;;;;;;5.43;5.03;;;30.10;52.70;;;;;;6225475;23;20524;-83
2021/07/02 14:08:52;;;;;;;4.97;4.57;;;30.40;52.70;;;;;;6225492;23;20473;-84
2021/07/02 14:11:19;;;;;;;5.43;5.03;;;30.40;51.40;;;;;;6227073;23;20419;-83
2021/07/02 14:13:45;;;;;;;5.20;4.80;;;30.20;52.70;;;;;;6224664;23;20912;-82
2021/07/02 14:16:12;;;;;;;6.20;5.00;;;30.00;51.00;;;;;;6226127;23;20405;-83
2021/07/02 14:18:41;;;;;;;5.60;5.10;;;30.10;52.00;;;;;;6224111;23;20405;-84
2021/07/02 14:21:09;;;;;;;5.67;5.27;;;29.90;52.60;;;;;;6225503;23;20455;-84
2021/07/02 14:23:38;;;;;;;5.53;5.13;;;29.80;53.60;;;;;;6226544;23;20419;-83
2021/07/02 14:26:04;;;;;;;5.20;4.70;;;29.70;53.40;;;;;;6228034;23;20499;-83
2021/07/02 14:28:31;;;;;;;6.07;5.60;;;29.80;53.40;;;;;;6228950;23;20495;-83
2021/07/02 14:30:58;;;;;;;6.20;5.60;;;29.80;53.70;;;;;;6227477;23;20397;-84
2021/07/02 14:33:25;;;;;;;5.40;5.00;;;30.10;52.90;;;;;;6225090;23;20398;-84
2021/07/02 14:35:52;;;;;;;5.80;5.40;;;30.50;52.10;;;;;;6228582;23;20481;-83
2021/07/02 14:38:20;;;;;;;5.43;5.03;;;30.10;52.70;;;;;;6228357;23;20429;-83
2021/07/02 14:40:47;;;;;;;5.70;5.30;;;29.90;53.40;;;;;;6227112;23;20421;-82
2021/07/02 14:43:14;;;;;;;6.40;5.83;;;29.70;54.30;;;;;;6227486;23;20413;-82
2021/07/02 14:45:44;;;;;;;6.00;5.60;;;30.00;54.10;;;;;;6228248;23;20444;-84
2021/07/02 14:48:23;;;;;;;;;;;;;;;;;;;;;
2021/07/02 14:50:50;;;;;;;5.37;4.97;;;29.50;54.30;;;;;;6228919;23;20443;-83
2021/07/02 14:53:19;;;;;;;5.07;4.70;;;29.30;54.90;;;;;;6225415;23;20408;-86
2021/07/02 14:55:47;;;;;;;5.43;5.13;;;29.20;55.60;;;;;;6227592;23;20491;-84
2021/07/02 14:58:27;;;;;;;5.10;4.80;;;29.10;56.60;;;;;;6225166;23;20429;-85
2021/07/02 15:01:17;;;;;;;6.00;5.50;;;29.60;55.80;;;;;;6220840;23;20417;-87
2021/07/02 15:03:47;;;;;;;5.10;4.80;;;30.10;54.50;;;;;;6219052;23;20468;-87
2021/07/02 15:06:15;;;;;;;7.13;6.10;;;30.70;53.70;;;;;;6221303;23;20468;-86
2021/07/02 15:08:44;;;;;;;5.83;5.33;;;31.30;52.50;;;;;;6221534;23;20966;-84
2021/07/02 15:11:14;;;;;;;5.67;5.27;;;31.80;52.10;;;;;;6219888;23;20416;-85
2021/07/02 15:13:40;;;;;;;6.20;5.63;;;32.20;50.40;;;;;;6219378;23;20445;-82
2021/07/02 15:16:14;;;;;;;6.00;5.50;;;32.00;51.30;;;;;;6220371;23;20416;-85
2021/07/02 15:18:42;;;;;;;6.93;6.43;;;31.40;50.00;;;;;;6223033;23;20419;-84
2021/07/02 15:21:13;;;;;;;6.20;5.80;;;30.40;51.50;;;;;;6222135;23;20420;-83
2021/07/02 15:23:39;;;;;;;5.23;4.83;;;30.30;52.40;;;;;;6222623;23;20406;-84
2021/07/02 15:26:44;;;;;;;5.83;5.43;;;30.70;53.60;;;;;;6222317;23;20473;-86
2021/07/02 15:29:18;;;;;;;4.97;4.57;;;30.90;52.60;;;;;;6099717;23;20458;-84
2021/07/02 15:32:24;;;;;;;5.97;5.40;;;31.00;52.00;;;;;;6187288;23;20553;-88
2021/07/02 15:35:19;;;;;;;6.20;5.37;;;30.50;52.50;;;;;;6220162;23;20411;-86
2021/07/02 15:38:26;;;;;;;;;;;;;;;;;;;;;
2021/07/02 15:41:32;;;;;;;;;;;;;;;;;;;;;
2021/07/02 15:44:16;;;;;;;5.83;5.43;;;30.10;52.10;;;;;;6213962;23;20428;-86
2021/07/02 15:46:42;;;;;;;5.77;5.27;;;29.60;54.20;;;;;;6222610;23;20437;-84
2021/07/02 15:49:25;;;;;;;5.87;5.37;;;29.50;54.00;;;;;;6221995;23;20983;-85
2021/07/02 15:51:58;;;;;;;6.67;5.70;;;29.50;54.10;;;;;;6219062;23;20441;-86
2021/07/02 16:03:26;;;;;;;;;;;;;;;;;;;;;
2021/07/02 16:12:50;;;;;;;6.83;6.00;;;26.80;57.20;;;;;;6042270;23;20416;-86
2021/07/02 16:28:36;;;;;;;6.00;5.50;;;27.80;57.80;;;;;;6003485;23;20527;-85
2021/07/02 16:31:28;;;;;;;6.40;5.90;;;28.50;55.80;;;;;;6003673;23;20417;-85
2021/07/02 16:57:49;;;;;;;5.10;4.70;;;31.50;49.50;;;;;;6197220;23;20950;-87
2021/07/02 17:00:34;;;;;;;6.17;5.53;;;31.60;48.80;;;;;;6224903;23;20387;-85
2021/07/02 17:03:20;;;;;;;5.73;5.17;;;31.60;49.20;;;;;;6220296;23;20903;-86
2021/07/02 17:05:50;;;;;;;5.13;4.73;;;32.00;48.70;;;;;;6218082;23;20439;-84
2021/07/02 19:52:19;;;;;;;10.43;6.53;;;20.70;78.30;;;;;;6216647;23;20370;-81
2021/07/02 19:54:46;;;;;;;6.83;6.30;;;20.50;80.20;;;;;;6219590;23;20441;-82
2021/07/02 19:57:13;;;;;;;6.70;6.10;;;20.40;81.40;;;;;;6221620;23;20428;-82
2021/07/02 19:59:39;;;;;;;7.00;6.50;;;20.20;82.70;;;;;;6220720;23;20405;-82
2021/07/02 20:02:06;;;;;;;7.07;6.40;;;20.10;84.00;;;;;;6219875;23;20432;-82
2021/07/02 20:04:33;;;;;;;7.13;6.50;;;20.00;84.60;;;;;;6219891;23;20412;-82
2021/07/02 20:07:01;;;;;;;8.03;7.30;;;19.90;85.50;;;;;;6220124;23;20478;-82
2021/07/02 20:09:29;;;;;;;7.73;6.87;;;19.80;85.20;;;;;;6220446;23;20416;-82
2021/07/02 20:11:58;;;;;;;7.87;7.17;;;19.70;85.60;;;;;;6219167;23;20930;-82
2021/07/02 20:14:25;;;;;;;7.70;7.10;;;19.60;87.40;;;;;;6220302;23;20734;-82
2021/07/02 20:16:52;;;;;;;6.93;6.33;;;19.50;88.30;;;;;;6219697;23;20425;-82
2021/07/02 20:19:19;;;;;;;7.53;6.87;;;19.50;89.20;;;;;;6218978;23;20416;-82
2021/07/02 20:21:45;;;;;;;8.83;8.03;;;19.40;90.00;;;;;;6219052;23;20415;-83
2021/07/02 20:24:12;;;;;;;10.47;7.30;;;19.30;90.20;;;;;;6220530;23;20411;-83
2021/07/02 20:26:40;;;;;;;7.83;7.10;;;19.20;90.70;;;;;;6219978;23;20453;-83
2021/07/02 20:29:07;;;;;;;7.07;6.23;;;19.20;91.10;;;;;;6219714;23;20413;-82
2021/07/02 20:31:34;;;;;;;6.60;6.10;;;19.10;91.40;;;;;;6219316;23;20419;-83
2021/07/02 20:34:03;;;;;;;6.77;6.27;;;19.00;91.70;;;;;;6219681;23;20407;-82
2021/07/02 20:36:30;;;;;;;6.50;6.00;;;18.90;91.70;;;;;;6219117;23;20412;-82
2021/07/02 20:38:57;;;;;;;8.70;7.93;;;18.90;91.80;;;;;;6219698;23;20412;-83
2021/07/02 20:41:24;;;;;;;7.27;6.57;;;18.80;92.00;;;;;;6219219;23;20408;-82
2021/07/02 20:43:52;;;;;;;7.90;7.20;;;18.80;93.10;;;;;;6219354;23;20415;-82
2021/07/02 20:46:19;;;;;;;8.93;8.00;;;18.70;93.10;;;;;;6219084;23;20467;-82
2021/07/02 20:48:46;;;;;;;8.80;7.77;;;18.70;93.90;;;;;;6219137;23;20420;-82
2021/07/02 20:51:12;;;;;;;8.50;7.70;;;18.60;94.10;;;;;;6219481;23;20416;-82
2021/07/02 20:53:39;;;;;;;9.37;8.57;;;18.60;94.80;;;;;;6219222;23;20415;-82
2021/07/02 20:56:06;;;;;;;9.93;9.07;;;18.50;95.00;;;;;;6219404;23;20408;-82
2021/07/02 20:58:33;;;;;;;10.63;8.10;;;18.40;95.10;;;;;;6219280;23;20439;-82
2021/07/02 21:01:01;;;;;;;8.80;8.00;;;18.40;95.10;;;;;;6219756;23;20455;-82
2021/07/02 21:03:27;;;;;;;10.10;9.10;;;18.30;95.40;;;;;;6218861;23;20418;-82
2021/07/02 21:05:55;;;;;;;9.60;8.60;;;18.20;95.70;;;;;;6219019;23;20443;-82
2021/07/02 21:08:22;;;;;;;9.27;8.40;;;18.20;96.10;;;;;;6218826;23;21013;-82
2021/07/02 21:10:51;;;;;;;9.87;9.07;;;18.10;96.70;;;;;;6219013;23;20415;-82
2021/07/02 21:13:17;;;;;;;8.83;8.07;;;18.00;96.60;;;;;;6217627;23;20945;-82
2021/07/02 21:15:44;;;;;;;9.70;7.57;;;17.90;97.40;;;;;;6219081;23;20426;-82
2021/07/02 21:18:13;;;;;;;9.40;8.50;;;17.90;97.90;;;;;;6218201;23;21125;-82
2021/07/02 21:20:41;;;;;;;9.00;8.10;;;17.80;98.20;;;;;;6218581;23;20416;-82
2021/07/02 21:23:08;;;;;;;9.13;8.40;;;17.70;98.90;;;;;;6218990;23;20504;-82
2021/07/02 21:25:35;;;;;;;9.40;8.50;;;17.70;99.20;;;;;;6218714;23;21103;-82
2021/07/02 21:28:02;;;;;;;10.37;9.47;;;17.60;99.60;;;;;;6218809;23;20431;-83
2021/07/02 21:30:29;;;;;;;10.87;9.77;;;17.60;99.90;;;;;;6218127;23;20902;-82
2021/07/02 21:32:56;;;;;;;9.23;8.30;;;17.60;99.90;;;;;;6217345;23;20410;-82
2021/07/02 21:35:24;;;;;;;8.97;8.23;;;17.50;99.90;;;;;;6218339;23;20411;-82
2021/07/02 21:37:51;;;;;;;9.30;8.40;;;17.50;99.90;;;;;;6217933;23;20434;-82
2021/07/02 21:40:20;;;;;;;10.73;9.73;;;17.40;99.90;;;;;;6218369;23;20411;-82
2021/07/02 21:42:47;;;;;;;9.03;8.13;;;17.30;99.90;;;;;;6218025;23;20497;-82
2021/07/02 21:45:14;;;;;;;9.10;8.27;;;17.30;99.90;;;;;;6218050;23;20422;-82
2021/07/02 21:47:41;;;;;;;8.80;8.10;;;17.20;99.90;;;;;;6217649;23;20439;-82
2021/07/02 21:50:09;;;;;;;13.83;8.00;;;17.20;99.90;;;;;;6218359;23;20418;-83
2021/07/02 21:52:37;;;;;;;8.70;7.87;;;17.20;99.90;;;;;;6217624;23;20411;-82
2021/07/02 21:55:04;;;;;;;8.23;7.53;;;17.10;99.90;;;;;;6218128;23;20414;-82
2021/07/02 21:57:31;;;;;;;10.30;8.37;;;17.10;99.90;;;;;;6218223;23;20455;-83
2021/07/02 21:59:58;;;;;;;8.67;7.77;;;17.00;99.90;;;;;;6218193;23;20411;-82
2021/07/02 22:02:25;;;;;;;9.60;8.70;;;17.00;99.90;;;;;;6218068;23;20432;-83
2021/07/02 22:04:51;;;;;;;12.87;8.70;;;16.90;99.90;;;;;;6218829;23;20410;-82
2021/07/02 22:07:18;;;;;;;11.00;9.13;;;16.90;99.90;;;;;;6218218;23;20430;-83
2021/07/02 22:09:46;;;;;;;9.57;8.77;;;16.90;99.90;;;;;;6218278;23;20408;-83
2021/07/02 22:12:13;;;;;;;9.67;8.17;;;16.80;99.90;;;;;;6218899;23;20416;-82
2021/07/02 22:14:39;;;;;;;9.97;9.07;;;16.80;99.90;;;;;;6218541;23;20416;-82
2021/07/02 22:17:06;;;;;;;9.53;8.60;;;16.70;99.90;;;;;;6218455;23;20450;-83
2021/07/02 22:19:33;;;;;;;10.20;9.30;;;16.70;99.90;;;;;;6218721;23;20410;-83
2021/07/02 22:22:00;;;;;;;10.00;8.73;;;16.60;99.90;;;;;;6217558;23;20409;-83
2021/07/02 22:24:26;;;;;;;11.30;10.13;;;16.60;99.90;;;;;;6218529;23;20420;-83
2021/07/02 22:26:55;;;;;;;9.93;8.77;;;16.60;99.90;;;;;;6218159;23;20425;-83
2021/07/02 22:29:21;;;;;;;9.70;7.87;;;16.50;99.90;;;;;;6218435;23;20731;-83
2021/07/02 22:31:50;;;;;;;8.57;7.80;;;16.50;99.90;;;;;;6218074;23;20766;-82
2021/07/02 22:34:16;;;;;;;8.53;7.73;;;16.50;99.90;;;;;;6219309;23;20409;-83
2021/07/02 22:36:43;;;;;;;9.63;8.73;;;16.40;99.90;;;;;;6217863;23;20449;-82
2021/07/02 22:39:11;;;;;;;10.53;8.60;;;16.40;99.90;;;;;;6218575;23;20414;-82
2021/07/02 22:41:38;;;;;;;11.47;10.27;;;16.40;99.90;;;;;;6218041;23;20754;-83
2021/07/02 22:44:07;;;;;;;9.47;8.27;;;16.30;99.90;;;;;;6218135;23;20973;-83
2021/07/02 22:46:34;;;;;;;8.27;7.50;;;16.30;99.90;;;;;;6220405;23;20429;-82
2021/07/02 22:49:01;;;;;;;9.63;8.67;;;16.30;99.90;;;;;;6219943;23;20893;-83
2021/07/02 22:51:28;;;;;;;8.67;7.77;;;16.20;99.90;;;;;;6219839;23;20417;-82
2021/07/02 22:53:55;;;;;;;9.60;8.70;;;16.20;99.90;;;;;;6220196;23;20413;-82
2021/07/02 22:56:22;;;;;;;11.23;10.13;;;16.20;99.90;;;;;;6220299;23;20445;-83
2021/07/02 22:58:49;;;;;;;9.80;8.63;;;16.10;99.90;;;;;;6220042;23;20417;-82
2021/07/02 23:01:17;;;;;;;9.47;8.23;;;16.10;99.90;;;;;;6219876;23;20416;-83
2021/07/02 23:03:43;;;;;;;8.87;8.10;;;16.10;99.90;;;;;;6219752;23;20416;-83
2021/07/02 23:06:10;;;;;;;13.70;8.80;;;16.00;99.90;;;;;;6219566;23;20424;-83
2021/07/02 23:08:39;;;;;;;9.53;8.67;;;16.00;99.90;;;;;;6220787;23;20452;-83
2021/07/02 23:11:08;;;;;;;10.73;9.77;;;16.00;99.90;;;;;;6223743;23;20480;-83
2021/07/02 23:13:34;;;;;;;11.23;8.50;;;16.00;99.90;;;;;;6222972;23;20423;-83
2021/07/02 23:16:01;;;;;;;8.97;8.03;;;16.00;99.90;;;;;;6223306;23;20404;-83
2021/07/02 23:18:29;;;;;;;9.33;8.53;;;15.90;99.90;;;;;;6223217;23;20511;-80
2021/07/02 23:20:56;;;;;;;10.87;9.87;;;15.90;99.90;;;;;;6223789;23;20921;-84
2021/07/02 23:23:23;;;;;;;11.03;9.93;;;15.90;99.90;;;;;;6223560;23;20416;-82
2021/07/02 23:25:50;;;;;;;10.53;9.47;;;15.90;99.90;;;;;;6223876;23;20420;-79
2021/07/02 23:28:16;;;;;;;11.43;9.83;;;15.90;99.90;;;;;;6223727;23;20436;-81
2021/07/02 23:30:43;;;;;;;11.30;9.97;;;15.80;99.90;;;;;;6223609;23;20420;-81